Weather at Meråker Airfield Øian

Public forecast

Using degrees Celsius for public forecast. Weather courtesy of forecast.io.

Closest aviation weather report (METAR) to Meråker Airfield Øian

Closest report is Trondheim Airport, Værnes, 24.4 nm (45.3 km) WNW.

2024/05/24 01:50 (retrieved 33 minutes ago)

ENVA 240150Z AUTO 10004KT 9999 NCD 13/09 Q1018 RMK WIND 670FT 12008KT

Closest aviation forecast (TAF) to Meråker Airfield Øian

Forecast is more than 12 hours old.

Closest forecast is Kangiqsujuaq (Wakeham Bay) Airport, 2,158.6 nm (3,997.7 km) NW.

2024/05/23 14:00 (retrieved 12 hours ago)

TAF CYKG 231342Z 2314/2321 36008KT P6SM -SN OVC012 TEMPO 2314/2321 P6SM -FZDZ OVC007 RMK NXT FCST BY 241400Z